createdAt,value
2023-01-22T00:01:21.605Z,99447.13
2023-01-22T00:03:49.263Z,99440.59
2023-01-22T00:06:16.070Z,99445.22
2023-01-22T00:08:42.592Z,99439.22
2023-01-22T00:11:09.506Z,99435.66
2023-01-22T00:13:35.964Z,99432.44
2023-01-22T00:16:02.579Z,99435.66
2023-01-22T00:18:29.092Z,99425.00
2023-01-22T00:20:55.662Z,99434.59
2023-01-22T00:23:22.282Z,99431.94
2023-01-22T00:25:48.776Z,99431.53
2023-01-22T00:28:16.766Z,99428.06
2023-01-22T00:30:45.985Z,99433.50
2023-01-22T00:33:12.484Z,99422.59
2023-01-22T00:35:39.586Z,99427.97
2023-01-22T00:38:06.253Z,99420.94
2023-01-22T00:40:33.015Z,99424.75
2023-01-22T00:42:59.480Z,99427.47
2023-01-22T00:45:26.012Z,99419.31
2023-01-22T00:47:52.527Z,99413.09
2023-01-22T00:50:19.534Z,99415.81
2023-01-22T00:52:46.143Z,99410.06
2023-01-22T00:55:12.650Z,99405.50
2023-01-22T00:57:39.122Z,99407.06
2023-01-22T01:00:06.182Z,99412.53
2023-01-22T01:02:32.639Z,99395.59
2023-01-22T01:04:59.390Z,99407.94
2023-01-22T01:07:25.927Z,99408.72
2023-01-22T01:09:52.405Z,99406.03
2023-01-22T01:12:18.872Z,99415.63
2023-01-22T01:14:45.365Z,99407.41
2023-01-22T01:17:11.856Z,99413.41
2023-01-22T01:19:38.383Z,99408.47
2023-01-22T01:22:06.239Z,99417.97
2023-01-22T01:24:32.715Z,99411.25
2023-01-22T01:26:59.186Z,99419.13
2023-01-22T01:29:25.644Z,99420.50
2023-01-22T01:31:54.630Z,99417.28
2023-01-22T01:34:21.158Z,99412.06
2023-01-22T01:36:49.622Z,99402.56
2023-01-22T01:39:16.623Z,99410.75
2023-01-22T01:41:43.148Z,99411.50
2023-01-22T01:44:13.864Z,99409.91
2023-01-22T01:46:48.534Z,99401.50
2023-01-22T01:49:36.595Z,99401.56
2023-01-22T01:52:06.487Z,99417.03
2023-01-22T01:54:32.980Z,99413.72
2023-01-22T01:57:06.123Z,99402.31
2023-01-22T01:59:33.606Z,99404.53
2023-01-22T02:02:00.239Z,99405.28
2023-01-22T02:04:26.719Z,99407.44
2023-01-22T02:06:53.248Z,99400.66
2023-01-22T02:09:19.709Z,99401.88
2023-01-22T02:11:46.189Z,99404.53
2023-01-22T02:14:18.539Z,99403.72
2023-01-22T02:16:45.003Z,99398.00
2023-01-22T02:19:11.467Z,99398.25
2023-01-22T02:21:39.079Z,99398.19
2023-01-22T02:24:07.616Z,99398.00
2023-01-22T02:26:34.336Z,99399.09
2023-01-22T02:29:00.770Z,99408.41
2023-01-22T02:31:27.235Z,99403.25
2023-01-22T02:33:53.795Z,99409.00
2023-01-22T02:36:21.261Z,99406.50
2023-01-22T02:38:47.686Z,99405.94
2023-01-22T02:41:15.073Z,99400.75
2023-01-22T02:43:42.497Z,99394.00
2023-01-22T02:46:09.015Z,99396.69
2023-01-22T02:48:35.704Z,99391.81
2023-01-22T02:51:02.198Z,99392.34
2023-01-22T02:53:28.646Z,99396.19
2023-01-22T02:55:55.118Z,99398.09
2023-01-22T02:58:21.561Z,99384.50
2023-01-22T03:00:47.992Z,99392.91
2023-01-22T03:03:18.113Z,99389.91
2023-01-22T03:05:46.979Z,99387.94
2023-01-22T03:08:13.419Z,99379.75
2023-01-22T03:10:39.858Z,99395.03
2023-01-22T03:13:25.004Z,99390.41
2023-01-22T03:16:10.024Z,99384.69
2023-01-22T03:18:55.116Z,99390.75
2023-01-22T03:21:22.395Z,99380.38
2023-01-22T03:23:53.213Z,99389.06
2023-01-22T03:26:20.481Z,99374.91
2023-01-22T03:28:46.958Z,99378.47
2023-01-22T03:31:13.703Z,99383.63
2023-01-22T03:33:40.458Z,99386.38
2023-01-22T03:36:09.329Z,99388.25
2023-01-22T03:38:35.835Z,99385.53
2023-01-22T03:41:12.167Z,99380.94
2023-01-22T03:43:38.835Z,99390.59
2023-01-22T03:46:23.390Z,99378.53
2023-01-22T03:48:50.749Z,99378.41
2023-01-22T03:51:17.241Z,99378.22
2023-01-22T03:53:43.946Z,99379.53
2023-01-22T03:56:15.754Z,99366.47
2023-01-22T03:58:42.378Z,99380.69
2023-01-22T04:01:12.814Z,99368.13
2023-01-22T04:03:39.263Z,99381.25
2023-01-22T04:06:06.378Z,99377.63
2023-01-22T04:08:33.620Z,99382.00
2023-01-22T04:11:00.496Z,99377.13
2023-01-22T04:13:27.812Z,99384.81
2023-01-22T04:15:54.279Z,99386.66
2023-01-22T04:18:20.738Z,99386.47
2023-01-22T04:20:50.471Z,99373.84
2023-01-22T04:23:17.028Z,99380.19
2023-01-22T04:25:44.001Z,99382.25
2023-01-22T04:28:14.495Z,99393.50
2023-01-22T04:30:41.459Z,99394.88
2023-01-22T04:33:08.230Z,99396.44
2023-01-22T04:35:35.022Z,99389.31
2023-01-22T04:38:01.696Z,99389.06
2023-01-22T04:40:28.217Z,99403.25
2023-01-22T04:42:54.639Z,99398.69
2023-01-22T04:45:21.142Z,99400.91
2023-01-22T04:47:48.189Z,99392.91
2023-01-22T04:50:19.222Z,99393.75
2023-01-22T04:52:45.936Z,99386.97
2023-01-22T04:55:12.696Z,99399.44
2023-01-22T04:57:39.129Z,99398.63
2023-01-22T05:00:06.152Z,99393.75
2023-01-22T05:02:32.673Z,99391.59
2023-01-22T05:04:59.140Z,99390.44
2023-01-22T05:07:25.566Z,99386.47
2023-01-22T05:09:51.990Z,99390.75
2023-01-22T05:12:19.005Z,99388.88
2023-01-22T05:14:45.442Z,99381.19
2023-01-22T05:17:11.885Z,99386.91
2023-01-22T05:19:38.324Z,99386.66
2023-01-22T05:22:04.846Z,99382.53
2023-01-22T05:24:31.278Z,99386.97
2023-01-22T05:26:57.702Z,99397.25
2023-01-22T05:29:26.010Z,99400.84
2023-01-22T05:31:56.363Z,99389.19
2023-01-22T05:34:23.149Z,99397.88
2023-01-22T05:36:49.697Z,99403.91
2023-01-22T05:39:16.636Z,99395.91
2023-01-22T05:41:43.201Z,99404.34
2023-01-22T05:44:10.636Z,99397.53
2023-01-22T05:46:37.080Z,99391.81
2023-01-22T05:49:03.626Z,99398.91
2023-01-22T05:51:32.281Z,99401.63
2023-01-22T05:53:58.889Z,99405.94
2023-01-22T05:56:25.345Z,99388.75
2023-01-22T05:58:51.768Z,99389.63
2023-01-22T06:01:18.273Z,99403.00
2023-01-22T06:03:44.797Z,99398.09
2023-01-22T06:06:12.082Z,99393.38
2023-01-22T06:08:38.514Z,99395.91
2023-01-22T06:11:06.480Z,99399.41
2023-01-22T06:13:33.125Z,99397.75
2023-01-22T06:16:00.195Z,99402.97
2023-01-22T06:18:26.732Z,99404.88
2023-01-22T06:20:53.197Z,99416.88
2023-01-22T06:23:19.655Z,99416.38
2023-01-22T06:25:51.944Z,99417.72
2023-01-22T06:28:18.373Z,99410.09
2023-01-22T06:30:45.081Z,99421.53
2023-01-22T06:33:11.563Z,99418.53
2023-01-22T06:35:38.005Z,99410.34
2023-01-22T06:38:04.656Z,99416.38
2023-01-22T06:40:31.101Z,99413.38
2023-01-22T06:43:00.129Z,99422.91
2023-01-22T06:45:26.564Z,99429.19
2023-01-22T06:47:53.004Z,99443.06
2023-01-22T06:50:19.683Z,99442.25
2023-01-22T06:52:46.390Z,99441.50
2023-01-22T06:55:12.883Z,99445.38
2023-01-22T06:57:39.366Z,99440.50
2023-01-22T07:00:06.594Z,99456.78
2023-01-22T07:02:33.150Z,99457.13
2023-01-22T07:04:59.619Z,99467.84
2023-01-22T07:07:26.098Z,99457.63
2023-01-22T07:09:52.565Z,99466.44
2023-01-22T07:12:19.037Z,99472.41
2023-01-22T07:14:45.501Z,99481.41
2023-01-22T07:17:11.960Z,99474.63
2023-01-22T07:19:38.485Z,99479.94
2023-01-22T07:22:04.962Z,99475.91
2023-01-22T07:24:31.429Z,99479.13
2023-01-22T07:26:57.905Z,99478.56
2023-01-22T07:29:24.378Z,99457.63
2023-01-22T07:31:50.883Z,99479.38
2023-01-22T07:34:17.390Z,99465.41
2023-01-22T07:36:44.134Z,99480.13
2023-01-22T07:39:10.608Z,99484.50
2023-01-22T07:41:37.085Z,99486.72
2023-01-22T07:44:03.746Z,99489.78
2023-01-22T07:46:30.274Z,99492.34
2023-01-22T07:48:56.750Z,99500.78
2023-01-22T07:51:23.325Z,99497.59
2023-01-22T07:53:49.879Z,99499.63
2023-01-22T07:56:17.986Z,99490.81
2023-01-22T07:58:45.164Z,99503.38
2023-01-22T08:01:11.806Z,99485.59
2023-01-22T08:03:38.668Z,99495.31
2023-01-22T08:06:12.185Z,99488.72
2023-01-22T08:08:38.744Z,99503.19
2023-01-22T08:11:05.217Z,99500.47
2023-01-22T08:13:31.728Z,99505.44
2023-01-22T08:15:58.215Z,99502.28
2023-01-22T08:18:24.697Z,99498.97
2023-01-22T08:20:51.344Z,99509.56
2023-01-22T08:23:17.830Z,99512.94
2023-01-22T08:25:44.311Z,99507.22
2023-01-22T08:28:10.842Z,99505.91
2023-01-22T08:30:45.469Z,99511.63
2023-01-22T08:33:12.460Z,99508.06
2023-01-22T08:35:39.120Z,99514.38
2023-01-22T08:38:05.611Z,99516.09
2023-01-22T08:40:32.089Z,99522.88
2023-01-22T08:42:58.559Z,99518.06
2023-01-22T08:45:25.095Z,99519.91
2023-01-22T08:47:56.163Z,99522.44
2023-01-22T08:50:22.630Z,99515.59
2023-01-22T08:52:49.160Z,99523.34
2023-01-22T08:55:15.681Z,99526.81
2023-01-22T08:57:42.154Z,99527.66
2023-01-22T09:00:09.944Z,99530.41
2023-01-22T09:02:36.421Z,99533.22
2023-01-22T09:05:02.883Z,99518.41
2023-01-22T09:07:29.421Z,99520.03
2023-01-22T09:09:55.885Z,99522.78
2023-01-22T09:12:22.387Z,99523.94
2023-01-22T09:14:48.868Z,99517.41
2023-01-22T09:17:15.329Z,99519.69
2023-01-22T09:19:41.795Z,99521.97
2023-01-22T09:22:08.260Z,99524.59
2023-01-22T09:24:34.753Z,99521.69
2023-01-22T09:27:01.268Z,99528.25
2023-01-22T09:29:27.732Z,99526.06
2023-01-22T09:31:54.255Z,99538.69
2023-01-22T09:34:20.753Z,99538.06
2023-01-22T09:36:47.229Z,99544.06
2023-01-22T09:39:13.713Z,99538.59
2023-01-22T09:41:41.242Z,99534.81
2023-01-22T09:44:18.142Z,99542.63
2023-01-22T09:46:49.877Z,99544.91
2023-01-22T09:49:18.388Z,99551.75
2023-01-22T09:51:47.061Z,99549.97
2023-01-22T09:54:15.526Z,99550.31
2023-01-22T09:56:43.798Z,99553.50
2023-01-22T09:59:16.891Z,99564.13
2023-01-22T10:01:45.921Z,99551.41
2023-01-22T10:04:40.756Z,99548.91
2023-01-22T10:07:21.458Z,99548.06
2023-01-22T10:09:52.391Z,99542.63
2023-01-22T10:12:18.891Z,99537.59
2023-01-22T10:14:45.361Z,99529.28
2023-01-22T10:17:25.862Z,99539.56
2023-01-22T10:19:54.726Z,99539.38
2023-01-22T10:22:23.313Z,99548.69
2023-01-22T10:24:50.071Z,99546.75
2023-01-22T10:27:18.900Z,99547.50
2023-01-22T10:29:55.267Z,99550.75
2023-01-22T10:32:24.176Z,99540.50
2023-01-22T10:35:10.514Z,99537.50
2023-01-22T10:37:45.229Z,99535.53
2023-01-22T10:40:35.814Z,99548.34
2023-01-22T10:43:03.422Z,99538.84
2023-01-22T10:45:29.964Z,99544.03
2023-01-22T10:48:13.506Z,99545.22
2023-01-22T10:50:40.508Z,99541.91
2023-01-22T10:53:15.075Z,99546.28
2023-01-22T10:55:41.574Z,99545.69
2023-01-22T10:58:14.663Z,99553.88
2023-01-22T11:00:51.546Z,99555.56
2023-01-22T11:03:24.308Z,99548.19
2023-01-22T11:05:57.856Z,99552.84
2023-01-22T11:08:27.159Z,99558.84
2023-01-22T11:11:04.599Z,99557.19
2023-01-22T11:13:56.270Z,99563.31
2023-01-22T11:16:24.236Z,99564.34
2023-01-22T11:19:05.282Z,99558.56
2023-01-22T11:21:34.840Z,99559.44
2023-01-22T11:24:12.895Z,99560.84
2023-01-22T11:27:18.397Z,99560.69
2023-01-22T11:30:03.004Z,99555.38
2023-01-22T11:32:32.432Z,99548.91
2023-01-22T11:35:10.520Z,99548.41
2023-01-22T11:37:53.819Z,99554.09
2023-01-22T11:40:28.352Z,99547.81
2023-01-22T11:43:18.724Z,99545.50
2023-01-22T11:46:11.596Z,99550.91
2023-01-22T11:48:48.879Z,99542.69
2023-01-22T11:51:35.641Z,99537.72
2023-01-22T11:54:39.697Z,99540.66
2023-01-22T11:57:21.979Z,99533.84
2023-01-22T11:59:57.468Z,99528.97
2023-01-22T12:02:51.507Z,99533.59
2023-01-22T12:05:42.751Z,99539.63
2023-01-22T12:08:14.825Z,99534.34
2023-01-22T12:10:47.119Z,99538.47
2023-01-22T12:13:45.215Z,99534.16
2023-01-22T12:16:23.912Z,99530.13
2023-01-22T12:19:20.556Z,99530.38
2023-01-22T12:22:09.291Z,99532.97
2023-01-22T12:24:39.756Z,99535.97
2023-01-22T12:27:26.800Z,99525.38
2023-01-22T12:29:59.959Z,99528.72
2023-01-22T12:32:27.690Z,99530.38
2023-01-22T12:34:58.533Z,99537.34
2023-01-22T12:37:28.083Z,99527.97
2023-01-22T12:40:05.537Z,99529.66
2023-01-22T12:42:41.015Z,99536.22
2023-01-22T12:45:19.596Z,99530.75
2023-01-22T12:47:45.904Z,99535.16
2023-01-22T12:50:20.306Z,99537.09
2023-01-22T12:52:57.692Z,99528.28
2023-01-22T12:55:31.114Z,99531.88
2023-01-22T12:57:57.658Z,99540.09
2023-01-22T13:00:38.966Z,99530.38
2023-01-22T13:03:30.979Z,99533.78
2023-01-22T13:05:58.207Z,99533.63
2023-01-22T13:08:36.339Z,99531.56
2023-01-22T13:11:10.125Z,99534.06
2023-01-22T13:13:48.654Z,99531.78
2023-01-22T13:16:15.011Z,99532.44
2023-01-22T13:18:44.553Z,99535.38
2023-01-22T13:21:12.046Z,99536.66
2023-01-22T13:23:41.545Z,99536.94
2023-01-22T13:26:14.128Z,99541.94
2023-01-22T13:28:42.002Z,99547.66
2023-01-22T13:31:15.346Z,99552.59
2023-01-22T13:33:57.865Z,99554.47
2023-01-22T13:36:24.743Z,99552.94
2023-01-22T13:38:52.857Z,99560.13
2023-01-22T13:41:26.728Z,99551.31
2023-01-22T13:43:53.197Z,99551.47
2023-01-22T13:46:19.710Z,99554.28
2023-01-22T13:48:46.194Z,99553.63
2023-01-22T13:51:17.472Z,99551.47
2023-01-22T13:53:45.904Z,99557.38
2023-01-22T13:56:19.615Z,99560.75
2023-01-22T13:58:48.569Z,99563.38
2023-01-22T14:01:34.027Z,99576.91
2023-01-22T14:04:02.223Z,99574.69
2023-01-22T14:06:28.899Z,99583.66
2023-01-22T14:08:57.200Z,99589.69
2023-01-22T14:11:23.971Z,99590.50
2023-01-22T14:13:51.715Z,99596.69
2023-01-22T14:16:18.301Z,99599.66
2023-01-22T14:18:47.692Z,99600.41
2023-01-22T14:21:14.467Z,99608.09
2023-01-22T14:23:42.649Z,99603.41
2023-01-22T14:26:09.498Z,99607.09
2023-01-22T14:28:36.097Z,99604.16
2023-01-22T14:31:02.667Z,99614.00
2023-01-22T14:33:30.672Z,99619.28
2023-01-22T14:35:57.172Z,99624.25
2023-01-22T14:38:24.181Z,99618.38
2023-01-22T14:40:50.695Z,99627.13
2023-01-22T14:43:17.166Z,99629.53
2023-01-22T14:45:44.676Z,99627.28
2023-01-22T14:48:15.192Z,99630.69
2023-01-22T14:50:41.694Z,99642.53
2023-01-22T14:53:08.361Z,99640.69
2023-01-22T14:55:34.910Z,99651.53
2023-01-22T14:58:02.022Z,99651.78
2023-01-22T15:00:29.381Z,99653.63
2023-01-22T15:02:56.409Z,99666.97
2023-01-22T15:05:22.957Z,99661.50
2023-01-22T15:07:49.710Z,99669.19
2023-01-22T15:10:16.572Z,99663.16
2023-01-22T15:12:48.103Z,99659.88
2023-01-22T15:15:20.035Z,99673.19
2023-01-22T15:17:46.529Z,99663.00
2023-01-22T15:20:13.197Z,99678.91
2023-01-22T15:22:39.684Z,99675.84
2023-01-22T15:25:06.758Z,99668.94
2023-01-22T15:27:33.535Z,99665.06
2023-01-22T15:30:00.143Z,99673.41
2023-01-22T15:32:26.713Z,99678.72
2023-01-22T15:34:53.191Z,99675.66
2023-01-22T15:37:19.683Z,99673.50
2023-01-22T15:39:46.231Z,99680.50
2023-01-22T15:42:12.709Z,99679.31
2023-01-22T15:44:39.178Z,99684.81
2023-01-22T15:47:06.346Z,99684.94
2023-01-22T15:49:33.185Z,99698.84
2023-01-22T15:51:59.679Z,99694.69
2023-01-22T15:54:26.928Z,99699.22
2023-01-22T15:56:53.444Z,99699.50
2023-01-22T15:59:19.941Z,99698.72
2023-01-22T16:01:46.820Z,99701.16
2023-01-22T16:04:13.307Z,99700.00
2023-01-22T16:06:39.869Z,99706.53
2023-01-22T16:09:07.556Z,99715.88
2023-01-22T16:11:34.252Z,99711.97
2023-01-22T16:14:00.801Z,99717.44
2023-01-22T16:16:30.236Z,99720.66
2023-01-22T16:18:57.410Z,99716.88
2023-01-22T16:21:23.925Z,99716.88
2023-01-22T16:24:00.664Z,99710.41
2023-01-22T16:26:28.898Z,99713.41
2023-01-22T16:28:55.979Z,99707.03
2023-01-22T16:31:24.415Z,99709.16
2023-01-22T16:33:55.878Z,99706.59
2023-01-22T16:36:23.302Z,99714.38
2023-01-22T16:38:49.800Z,99713.06
2023-01-22T16:41:26.541Z,99719.00
2023-01-22T16:43:57.169Z,99714.88
2023-01-22T16:46:24.680Z,99721.34
2023-01-22T16:49:21.170Z,99728.25
2023-01-22T16:51:52.626Z,99718.72
2023-01-22T16:54:27.847Z,99729.00
2023-01-22T16:56:55.168Z,99729.53
2023-01-22T16:59:21.767Z,99728.94
2023-01-22T17:01:48.290Z,99736.66
2023-01-22T17:04:14.869Z,99739.53
2023-01-22T17:06:46.229Z,99745.31
2023-01-22T17:09:17.339Z,99749.63
2023-01-22T17:11:46.235Z,99756.25
2023-01-22T17:14:13.448Z,99752.75
2023-01-22T17:16:39.941Z,99751.88
2023-01-22T17:19:06.449Z,99760.88
2023-01-22T17:21:32.951Z,99761.75
2023-01-22T17:23:59.522Z,99760.28
2023-01-22T17:26:26.031Z,99765.31
2023-01-22T17:28:53.268Z,99758.63
2023-01-22T17:31:21.933Z,99757.22
2023-01-22T17:33:48.849Z,99753.31
2023-01-22T17:36:16.186Z,99744.84
2023-01-22T17:38:42.837Z,99759.56
2023-01-22T17:41:10.221Z,99761.97
2023-01-22T17:43:36.828Z,99759.56
2023-01-22T17:46:07.320Z,99769.66
2023-01-22T17:48:35.650Z,99771.69
2023-01-22T17:51:06.759Z,99776.31
2023-01-22T17:53:35.470Z,99779.31
2023-01-22T17:56:09.519Z,99775.16
2023-01-22T17:58:36.192Z,99774.75
2023-01-22T18:01:07.225Z,99780.13
2023-01-22T18:03:35.612Z,99781.69
2023-01-22T18:06:02.217Z,99780.56
2023-01-22T18:08:29.681Z,99786.41
2023-01-22T18:10:56.675Z,99784.84
2023-01-22T18:13:23.184Z,99788.66
2023-01-22T18:15:49.824Z,99790.69
2023-01-22T18:18:16.370Z,99785.94
2023-01-22T18:20:46.064Z,99788.41
2023-01-22T18:23:13.178Z,99782.72
2023-01-22T18:25:46.636Z,99789.97
2023-01-22T18:28:14.936Z,99792.47
2023-01-22T18:30:41.501Z,99790.06
2023-01-22T18:33:09.444Z,99790.56
2023-01-22T18:35:36.563Z,99794.47
2023-01-22T18:38:03.050Z,99795.88
2023-01-22T18:40:30.832Z,99794.47
2023-01-22T18:42:57.497Z,99788.41
2023-01-22T18:45:24.591Z,99801.50
2023-01-22T18:47:54.092Z,99800.06
2023-01-22T18:50:23.644Z,99811.59
2023-01-22T18:52:50.142Z,99797.44
2023-01-22T18:55:17.088Z,99799.09
2023-01-22T18:57:46.312Z,99797.84
2023-01-22T19:00:13.692Z,99798.75
2023-01-22T19:02:40.590Z,99805.53
2023-01-22T19:05:07.376Z,99809.56
2023-01-22T19:07:38.066Z,99800.88
2023-01-22T19:10:06.520Z,99797.25
2023-01-22T19:12:33.330Z,99795.78
2023-01-22T19:14:59.877Z,99805.72
2023-01-22T19:17:26.625Z,99804.88
2023-01-22T19:19:53.088Z,99805.72
2023-01-22T19:22:19.641Z,99815.38
2023-01-22T19:24:46.120Z,99807.09
2023-01-22T19:27:12.633Z,99818.44
2023-01-22T19:29:39.662Z,99821.75
2023-01-22T19:32:06.471Z,99820.09
2023-01-22T19:34:33.015Z,99824.25
2023-01-22T19:37:02.234Z,99821.09
2023-01-22T19:39:28.819Z,99828.78
2023-01-22T19:41:55.361Z,99834.16
2023-01-22T19:44:21.894Z,99825.97
2023-01-22T19:46:48.500Z,99829.03
2023-01-22T19:49:15.085Z,99824.06
2023-01-22T19:51:41.756Z,99822.94
2023-01-22T19:54:08.800Z,99831.66
2023-01-22T19:56:36.438Z,99835.22
2023-01-22T19:59:08.394Z,99841.22
2023-01-22T20:01:35.173Z,99836.75
2023-01-22T20:04:01.784Z,99846.16
2023-01-22T20:06:28.352Z,99842.88
2023-01-22T20:08:55.501Z,99844.44
2023-01-22T20:11:21.986Z,99843.44
2023-01-22T20:13:48.892Z,99835.22
2023-01-22T20:16:21.119Z,99840.69
2023-01-22T20:18:47.943Z,99842.19
2023-01-22T20:21:15.452Z,99845.84
2023-01-22T20:23:42.047Z,99845.09
2023-01-22T20:26:08.977Z,99848.41
2023-01-22T20:28:35.839Z,99842.69
2023-01-22T20:31:04.316Z,99849.91
2023-01-22T20:33:30.980Z,99842.28
2023-01-22T20:35:58.427Z,99839.97
2023-01-22T20:38:24.899Z,99847.91
2023-01-22T20:40:51.425Z,99847.91
2023-01-22T20:43:19.005Z,99853.38
2023-01-22T20:45:45.552Z,99857.19
2023-01-22T20:48:12.050Z,99859.91
2023-01-22T20:50:41.938Z,99860.16
2023-01-22T20:53:08.503Z,99856.69
2023-01-22T20:55:35.208Z,99855.03
2023-01-22T20:58:01.769Z,99863.63
2023-01-22T21:00:28.235Z,99862.06
2023-01-22T21:02:54.727Z,99862.00
2023-01-22T21:05:21.303Z,99864.97
2023-01-22T21:07:47.851Z,99864.78
2023-01-22T21:10:14.595Z,99865.28
2023-01-22T21:12:41.693Z,99860.81
2023-01-22T21:15:08.699Z,99856.00
2023-01-22T21:17:35.839Z,99861.41
2023-01-22T21:20:02.772Z,99862.53
2023-01-22T21:22:29.728Z,99861.16
2023-01-22T21:24:56.189Z,99853.72
2023-01-22T21:27:22.699Z,99856.69
2023-01-22T21:29:50.330Z,99857.75
2023-01-22T21:32:16.936Z,99852.88
2023-01-22T21:34:43.410Z,99856.53
2023-01-22T21:37:09.909Z,99846.84
2023-01-22T21:39:38.506Z,99856.00
2023-01-22T21:42:23.431Z,99855.59
2023-01-22T21:45:08.545Z,99852.69
2023-01-22T21:47:35.085Z,99860.75
2023-01-22T21:50:01.557Z,99857.41
2023-01-22T21:52:28.080Z,99859.22
2023-01-22T21:54:54.540Z,99867.38
2023-01-22T21:57:21.043Z,99873.91
2023-01-22T21:59:47.549Z,99864.88
2023-01-22T22:02:15.281Z,99862.88
2023-01-22T22:04:41.776Z,99867.69
2023-01-22T22:07:08.265Z,99873.81
2023-01-22T22:09:34.750Z,99875.06
2023-01-22T22:12:01.413Z,99868.25
2023-01-22T22:14:27.914Z,99867.38
2023-01-22T22:16:54.565Z,99866.69
2023-01-22T22:19:21.260Z,99867.50
2023-01-22T22:21:47.729Z,99870.44
2023-01-22T22:24:14.344Z,99873.22
2023-01-22T22:26:40.857Z,99879.28
2023-01-22T22:29:07.620Z,99875.94
2023-01-22T22:31:34.137Z,99882.59
2023-01-22T22:34:00.665Z,99874.00
2023-01-22T22:36:28.061Z,99871.31
2023-01-22T22:38:54.935Z,99876.88
2023-01-22T22:41:23.402Z,99875.91
2023-01-22T22:43:52.117Z,99875.81
2023-01-22T22:46:23.212Z,99888.53
2023-01-22T22:48:49.777Z,99886.28
2023-01-22T22:51:23.202Z,99885.81
2023-01-22T22:53:52.000Z,99888.44
2023-01-22T22:56:18.565Z,99885.47
2023-01-22T22:58:45.038Z,99886.47
2023-01-22T23:01:13.328Z,99891.25
2023-01-22T23:03:40.170Z,99893.91
2023-01-22T23:06:10.249Z,99897.50
2023-01-22T23:08:37.010Z,99894.56
2023-01-22T23:11:08.217Z,99908.81
2023-01-22T23:13:34.948Z,99914.78
2023-01-22T23:16:02.350Z,99918.22
2023-01-22T23:18:30.086Z,99921.19
2023-01-22T23:20:56.559Z,99923.22
2023-01-22T23:23:23.074Z,99935.97
2023-01-22T23:25:49.565Z,99926.94
2023-01-22T23:28:16.088Z,99926.41
2023-01-22T23:30:42.719Z,99939.09
2023-01-22T23:33:09.271Z,99936.03
2023-01-22T23:35:35.727Z,99938.19
2023-01-22T23:38:02.213Z,99929.50
2023-01-22T23:40:28.743Z,99927.59
2023-01-22T23:42:55.386Z,99930.66
2023-01-22T23:45:21.902Z,99924.38
2023-01-22T23:47:48.453Z,99930.56
2023-01-22T23:50:15.205Z,99931.63
2023-01-22T23:52:42.769Z,99931.34
2023-01-22T23:55:10.473Z,99925.22
2023-01-22T23:57:37.006Z,99927.78
